createdAt,value
2023-04-14T00:00:41.287Z,94082
2023-04-14T00:04:06.678Z,94088
2023-04-14T00:07:31.917Z,94082
2023-04-14T00:10:57.234Z,94083
2023-04-14T00:14:22.607Z,94079
2023-04-14T00:17:47.998Z,94086
2023-04-14T00:21:13.246Z,94071
2023-04-14T00:24:38.592Z,94071
2023-04-14T00:28:03.915Z,94072
2023-04-14T00:31:29.313Z,94072
2023-04-14T00:34:54.563Z,94071
2023-04-14T00:38:19.926Z,94077
2023-04-14T00:41:45.257Z,94083
2023-04-14T00:45:10.621Z,94085
2023-04-14T00:48:35.999Z,94080
2023-04-14T00:52:01.303Z,94082
2023-04-14T00:55:26.657Z,94085
2023-04-14T00:58:52.020Z,94084
2023-04-14T01:02:17.379Z,94081
2023-04-14T01:05:42.654Z,94081
2023-04-14T01:09:07.919Z,94082
2023-04-14T01:12:33.246Z,94083
2023-04-14T01:15:58.599Z,94082
2023-04-14T01:19:23.871Z,94085
2023-04-14T01:22:49.233Z,94087
2023-04-14T01:26:14.501Z,94086
2023-04-14T01:29:39.804Z,94098
2023-04-14T01:33:05.129Z,94099
2023-04-14T01:36:30.412Z,94098
2023-04-14T01:39:55.737Z,94101
2023-04-14T01:43:21.014Z,94110
2023-04-14T01:46:46.303Z,94101
2023-04-14T01:50:11.620Z,94106
2023-04-14T01:53:36.939Z,94109
2023-04-14T01:57:02.272Z,94108
2023-04-14T02:00:27.578Z,94109
2023-04-14T02:03:53.064Z,94110
2023-04-14T02:07:18.203Z,94108
2023-04-14T02:10:43.603Z,94105
2023-04-14T02:14:08.923Z,94101
2023-04-14T02:17:34.204Z,94098
2023-04-14T02:20:59.503Z,94094
2023-04-14T02:24:24.805Z,94090
2023-04-14T02:27:50.101Z,94086
2023-04-14T02:31:15.426Z,94085
2023-04-14T02:34:40.663Z,94089
2023-04-14T02:38:05.942Z,94086
2023-04-14T02:41:31.225Z,94091
2023-04-14T02:44:56.522Z,94093
2023-04-14T02:48:21.867Z,94093
2023-04-14T02:51:47.116Z,94089
2023-04-14T02:55:12.367Z,94096
2023-04-14T02:58:37.675Z,94100
2023-04-14T03:02:03.053Z,94101
2023-04-14T03:05:28.266Z,94101
2023-04-14T03:08:53.591Z,94091
2023-04-14T03:12:18.910Z,94086
2023-04-14T03:15:44.191Z,94098
2023-04-14T03:19:09.445Z,94100
2023-04-14T03:22:34.791Z,94099
2023-04-14T03:26:00.056Z,94096
2023-04-14T03:29:25.323Z,94106
2023-04-14T03:32:50.668Z,94104
2023-04-14T03:36:15.900Z,94105
2023-04-14T03:39:41.208Z,94099
2023-04-14T03:43:06.429Z,94102
2023-04-14T03:46:31.723Z,94094
2023-04-14T03:49:56.978Z,94089
2023-04-14T03:53:22.280Z,94088
2023-04-14T03:56:47.594Z,94088
2023-04-14T04:00:12.807Z,94090
2023-04-14T04:03:38.173Z,94082
2023-04-14T04:07:03.361Z,94081
2023-04-14T04:10:28.672Z,94078
2023-04-14T04:13:53.962Z,94081
2023-04-14T04:17:19.269Z,94096
2023-04-14T04:20:44.534Z,94107
2023-04-14T04:24:09.810Z,94107
2023-04-14T04:27:35.114Z,94106
2023-04-14T04:31:00.470Z,94104
2023-04-14T04:34:25.742Z,94102
2023-04-14T04:37:51.085Z,94108
2023-04-14T04:41:16.413Z,94107
2023-04-14T04:44:41.696Z,94109
2023-04-14T04:48:07.281Z,94105
2023-04-14T04:51:32.527Z,94101
2023-04-14T04:54:57.845Z,94103
2023-04-14T04:58:23.139Z,94097
2023-04-14T05:01:48.561Z,94089
2023-04-14T05:05:13.735Z,94087
2023-04-14T05:08:38.923Z,94091
2023-04-14T05:12:04.168Z,94092
2023-04-14T05:15:29.427Z,94085
2023-04-14T05:18:54.608Z,94083
2023-04-14T05:22:19.826Z,94080
2023-04-14T05:25:46.462Z,94089
2023-04-14T05:29:10.271Z,94088
2023-04-14T05:32:35.475Z,94092
2023-04-14T05:36:00.667Z,94081
2023-04-14T05:39:25.941Z,94090
2023-04-14T05:42:51.137Z,94084
2023-04-14T05:46:16.389Z,94086
2023-04-14T05:49:41.560Z,94067
2023-04-14T05:53:06.857Z,94086
2023-04-14T05:56:32.208Z,94093
2023-04-14T05:59:58.363Z,94088
2023-04-14T06:03:22.701Z,94088
2023-04-14T06:06:47.771Z,94093
2023-04-14T06:10:13.081Z,94092
2023-04-14T06:13:38.360Z,94099
2023-04-14T06:17:03.668Z,94100
2023-04-14T06:20:30.795Z,94096
2023-04-14T06:23:54.300Z,94085
2023-04-14T06:27:19.597Z,94090
2023-04-14T06:30:45.009Z,94094
2023-04-14T06:34:10.298Z,94088
2023-04-14T06:37:35.626Z,94093
2023-04-14T06:41:00.941Z,94093
2023-04-14T06:44:26.332Z,94087
2023-04-14T06:47:51.706Z,94083
2023-04-14T06:51:17.035Z,94074
2023-04-14T06:54:42.430Z,94074
2023-04-14T06:58:07.719Z,94075
2023-04-14T07:01:33.069Z,94075
2023-04-14T07:04:58.452Z,94074
2023-04-14T07:08:23.744Z,94073
2023-04-14T07:11:49.060Z,94077
2023-04-14T07:15:14.376Z,94080
2023-04-14T07:18:39.716Z,94082
2023-04-14T07:22:05.074Z,94089
2023-04-14T07:25:30.362Z,94088
2023-04-14T07:28:55.732Z,94095
2023-04-14T07:32:21.016Z,94090
2023-04-14T07:35:58.558Z,94088
2023-04-14T07:39:11.837Z,94086
2023-04-14T07:42:37.154Z,94088
2023-04-14T07:46:02.531Z,94091
2023-04-14T07:49:27.910Z,94087
2023-04-14T07:52:53.282Z,94085
2023-04-14T07:56:18.610Z,94086
2023-04-14T07:59:43.888Z,94095
2023-04-14T08:03:09.404Z,94103
2023-04-14T08:06:34.533Z,94103
2023-04-14T08:09:59.864Z,94102
2023-04-14T08:13:25.229Z,94098
2023-04-14T08:16:50.502Z,94099
2023-04-14T08:20:15.745Z,94096
2023-04-14T08:23:40.972Z,94092
2023-04-14T08:27:06.287Z,94085
2023-04-14T08:30:31.601Z,94087
2023-04-14T08:33:56.866Z,94080
2023-04-14T08:37:22.090Z,94083
2023-04-14T08:40:47.363Z,94072
2023-04-14T08:44:12.641Z,94078
2023-04-14T08:47:38.105Z,94081
2023-04-14T08:51:03.331Z,94084
2023-04-14T08:54:28.643Z,94084
2023-04-14T08:57:53.959Z,94084
2023-04-14T09:01:19.428Z,94093
2023-04-14T09:04:44.751Z,94087
2023-04-14T09:08:09.923Z,94088
2023-04-14T09:11:35.272Z,94088
2023-04-14T09:15:00.559Z,94087
2023-04-14T09:18:25.896Z,94082
2023-04-14T09:21:54.147Z,94083
2023-04-14T09:25:16.713Z,94088
2023-04-14T09:28:42.061Z,94093
2023-04-14T09:32:07.444Z,94087
2023-04-14T09:35:32.870Z,94097
2023-04-14T09:38:58.284Z,94100
2023-04-14T09:42:23.667Z,94087
2023-04-14T09:45:49.198Z,94074
2023-04-14T09:49:14.598Z,94081
2023-04-14T09:52:40.030Z,94085
2023-04-14T09:56:05.432Z,94085
2023-04-14T09:59:30.800Z,94093
2023-04-14T10:02:56.536Z,94095
2023-04-14T10:06:21.552Z,94104
2023-04-14T10:09:46.916Z,94099
2023-04-14T10:13:12.319Z,94105
2023-04-14T10:16:37.740Z,94098
2023-04-14T10:20:02.952Z,94099
2023-04-14T10:23:28.281Z,94099
2023-04-14T10:26:53.561Z,94095
2023-04-14T10:30:18.977Z,94098
2023-04-14T10:33:44.218Z,94099
2023-04-14T10:37:09.557Z,94107
2023-04-14T10:40:34.942Z,94108
2023-04-14T10:44:00.364Z,94104
2023-04-14T10:47:25.786Z,94100
2023-04-14T10:50:50.988Z,94090
2023-04-14T10:54:16.267Z,94105
2023-04-14T10:57:41.569Z,94103
2023-04-14T11:01:06.866Z,94099
2023-04-14T11:04:32.258Z,94076
2023-04-14T11:07:58.787Z,94063
2023-04-14T11:11:22.791Z,94067
2023-04-14T11:14:48.128Z,94059
2023-04-14T11:18:13.644Z,94062
2023-04-14T11:21:38.895Z,94068
2023-04-14T11:25:08.882Z,94057
2023-04-14T11:28:34.620Z,94062
2023-04-14T11:31:59.946Z,94062
2023-04-14T11:35:25.239Z,94053
2023-04-14T11:38:50.540Z,94052
2023-04-14T11:42:15.818Z,94048
2023-04-14T11:45:41.757Z,94049
2023-04-14T11:49:07.092Z,94049
2023-04-14T11:52:32.470Z,94049
2023-04-14T11:55:57.782Z,94048
2023-04-14T11:59:23.011Z,94042
2023-04-14T12:02:48.349Z,94033
2023-04-14T12:06:13.510Z,94039
2023-04-14T12:09:38.777Z,94038
2023-04-14T12:13:04.301Z,94031
2023-04-14T12:16:29.524Z,94020
2023-04-14T12:19:54.746Z,94014
2023-04-14T12:23:19.958Z,94018
2023-04-14T12:26:45.220Z,94027
2023-04-14T12:30:10.490Z,94037
2023-04-14T12:33:35.893Z,94032
2023-04-14T12:37:01.147Z,94028
2023-04-14T12:40:26.390Z,94021
2023-04-14T12:43:51.789Z,94012
2023-04-14T12:47:17.194Z,94007
2023-04-14T12:50:42.651Z,94009
2023-04-14T12:54:08.005Z,94003
2023-04-14T12:57:33.431Z,93989
2023-04-14T13:00:58.794Z,93989
2023-04-14T13:04:24.307Z,93983
2023-04-14T13:07:49.823Z,93974
2023-04-14T13:11:15.303Z,93973
2023-04-14T13:14:40.765Z,93964
2023-04-14T13:18:06.247Z,93970
2023-04-14T13:21:31.777Z,93971
2023-04-14T13:24:57.294Z,93966
2023-04-14T13:28:22.772Z,93956
2023-04-14T13:31:48.456Z,93960
2023-04-14T13:35:14.125Z,93955
2023-04-14T13:38:39.739Z,93949
2023-04-14T13:42:05.342Z,93947
2023-04-14T13:45:30.955Z,93958
2023-04-14T13:48:56.532Z,93962
2023-04-14T13:52:22.101Z,93965
2023-04-14T13:55:47.749Z,93963
2023-04-14T13:59:13.121Z,93972
2023-04-14T14:02:38.511Z,93971
2023-04-14T14:06:03.754Z,93970
2023-04-14T14:09:29.074Z,93967
2023-04-14T14:12:54.408Z,93965
2023-04-14T14:16:29.418Z,93966
2023-04-14T14:19:44.988Z,93973
2023-04-14T14:23:10.273Z,93968
2023-04-14T14:26:35.612Z,93976
2023-04-14T14:30:00.911Z,93977
2023-04-14T14:33:26.277Z,93970
2023-04-14T14:36:51.672Z,93968
2023-04-14T14:40:16.925Z,93959
2023-04-14T14:43:42.189Z,93954
2023-04-14T14:47:07.798Z,93952
2023-04-14T14:50:33.083Z,93953
2023-04-14T14:54:08.629Z,93956
2023-04-14T14:57:23.712Z,93960
2023-04-14T15:00:49.028Z,93964
2023-04-14T15:04:14.459Z,93960
2023-04-14T15:42:15.832Z,93954
2023-04-14T15:45:41.210Z,93949
2023-04-14T15:49:06.553Z,93949
2023-04-14T15:52:31.937Z,93948
2023-04-14T15:55:57.342Z,93949
2023-04-14T15:59:22.799Z,93952
2023-04-14T16:02:48.243Z,93961
2023-04-14T16:06:13.564Z,93954
2023-04-14T16:09:38.948Z,93965
2023-04-14T16:13:04.367Z,93960
2023-04-14T16:16:29.724Z,93961
2023-04-14T16:19:55.113Z,93969
2023-04-14T16:23:20.893Z,93974
2023-04-14T16:26:46.470Z,93973
2023-04-14T16:30:11.934Z,93980
2023-04-14T16:33:37.301Z,93984
2023-04-14T16:37:02.654Z,93990
2023-04-14T16:40:28.006Z,93988
2023-04-14T16:43:53.620Z,93990
2023-04-14T16:47:19.362Z,93991
2023-04-14T16:50:45.038Z,93991
2023-04-14T16:54:10.614Z,93996
2023-04-14T16:57:37.348Z,93993
2023-04-14T17:01:04.716Z,93990
2023-04-14T17:04:33.410Z,93992
2023-04-14T17:08:00.029Z,93995
2023-04-14T17:11:26.610Z,93989
2023-04-14T17:14:53.337Z,93990
2023-04-14T17:18:20.242Z,93992
2023-04-14T17:21:48.927Z,93998
2023-04-14T17:25:16.927Z,93994
2023-04-14T17:28:42.979Z,93991
2023-04-14T17:32:08.700Z,93989
2023-04-14T17:35:34.372Z,93988
2023-04-14T17:38:59.977Z,93990
2023-04-14T17:42:25.722Z,93986
2023-04-14T17:45:51.351Z,93988
2023-04-14T17:49:17.883Z,93983
2023-04-14T17:52:43.849Z,93981
2023-04-14T17:56:09.679Z,93980
2023-04-14T17:59:35.501Z,93984
2023-04-14T18:03:01.235Z,93980
2023-04-14T18:06:26.959Z,93986
2023-04-14T18:09:52.717Z,93983
2023-04-14T18:13:18.394Z,93982
2023-04-14T18:16:44.225Z,93989
2023-04-14T18:20:09.843Z,93992
2023-04-14T18:23:35.651Z,93992
2023-04-14T18:28:02.610Z,93996
2023-04-14T18:30:27.026Z,93994
2023-04-14T18:33:53.087Z,94000
2023-04-14T18:37:18.366Z,94003
2023-04-14T18:40:43.997Z,94001
2023-04-14T18:44:09.522Z,94004
2023-04-14T18:47:35.028Z,94001
2023-04-14T18:51:00.368Z,93999
2023-04-14T18:54:25.703Z,94005
2023-04-14T18:57:51.034Z,94009
2023-04-14T19:01:16.401Z,94013
2023-04-14T19:04:41.747Z,94008
2023-04-14T19:08:07.107Z,94000
2023-04-14T19:11:32.410Z,94007
2023-04-14T19:14:57.810Z,94011
2023-04-14T19:18:23.159Z,94010
2023-04-14T19:21:48.506Z,94011
2023-04-14T19:25:13.860Z,94010
2023-04-14T19:28:39.165Z,94010
2023-04-14T19:32:04.644Z,94014
2023-04-14T19:35:29.900Z,94015
2023-04-14T19:38:55.238Z,94009
2023-04-14T19:42:20.618Z,94017
2023-04-14T19:45:45.960Z,94014
2023-04-14T19:49:11.303Z,94009
2023-04-14T19:52:36.660Z,94005
2023-04-14T19:56:02.129Z,94004
2023-04-14T19:59:27.553Z,93998
2023-04-14T20:02:52.838Z,93995
2023-04-14T20:06:18.007Z,93989
2023-04-14T20:09:43.229Z,93991
2023-04-14T20:13:08.440Z,93989
2023-04-14T20:16:33.701Z,93986
2023-04-14T20:19:58.885Z,93978
2023-04-14T20:23:25.471Z,93978
2023-04-14T20:26:50.684Z,93970
2023-04-14T20:30:15.933Z,93968
2023-04-14T20:33:41.142Z,93970
2023-04-14T20:37:06.352Z,93972
2023-04-14T20:40:31.573Z,93965
2023-04-14T20:43:56.776Z,93962
2023-04-14T20:47:22.008Z,93963
2023-04-14T20:50:47.226Z,93961
2023-04-14T20:54:12.435Z,93959
2023-04-14T20:57:37.642Z,93962
2023-04-14T21:01:02.865Z,93954
2023-04-14T21:04:28.109Z,93957
2023-04-14T21:07:53.283Z,93954
2023-04-14T21:11:19.231Z,93947
2023-04-14T21:15:26.938Z,93952
2023-04-14T21:18:09.651Z,93951
2023-04-14T21:21:34.856Z,93954
2023-04-14T21:25:00.099Z,93950
2023-04-14T21:28:25.270Z,93959
2023-04-14T21:31:50.469Z,93956
2023-04-14T21:35:15.684Z,93958
2023-04-14T21:38:40.896Z,93962
2023-04-14T21:42:06.173Z,93965
2023-04-14T21:45:31.414Z,93958
2023-04-14T21:49:00.201Z,93959
2023-04-14T21:52:25.271Z,93956
2023-04-14T21:55:58.655Z,93951
2023-04-14T21:59:15.757Z,93944
2023-04-14T22:02:41.089Z,93945
2023-04-14T22:06:06.145Z,93945
2023-04-14T22:09:31.346Z,93941
2023-04-14T22:12:56.555Z,93934
2023-04-14T22:16:21.823Z,93933
2023-04-14T22:19:46.994Z,93927
2023-04-14T22:23:12.210Z,93936
2023-04-14T22:26:37.410Z,93932
2023-04-14T22:30:02.628Z,93939
2023-04-14T22:33:27.890Z,93942
2023-04-14T22:36:53.051Z,93938
2023-04-14T22:40:18.256Z,93939
2023-04-14T22:43:43.475Z,93936
2023-04-14T22:47:08.673Z,93933
2023-04-14T22:50:33.910Z,93935
2023-04-14T22:53:59.081Z,93932
2023-04-14T22:57:24.288Z,93938
2023-04-14T23:00:49.494Z,93937
2023-04-14T23:04:15.108Z,93939
2023-04-14T23:07:40.171Z,93932
2023-04-14T23:11:05.347Z,93928
2023-04-14T23:14:30.571Z,93928
2023-04-14T23:17:55.798Z,93923
2023-04-14T23:21:20.996Z,93922
2023-04-14T23:24:46.227Z,93925
2023-04-14T23:28:11.408Z,93929
2023-04-14T23:31:36.710Z,93920
2023-04-14T23:35:01.809Z,93920
2023-04-14T23:38:27.038Z,93919
2023-04-14T23:41:52.253Z,93916
2023-04-14T23:45:17.449Z,93915
2023-04-14T23:48:42.717Z,93901
2023-04-14T23:52:07.854Z,93896
2023-04-14T23:55:33.059Z,93894
2023-04-14T23:58:58.352Z,93891
